createdAt,value
2019-03-30T00:00:03.337Z,82.19
2019-03-30T00:05:07.909Z,82.57
2019-03-30T00:10:10.666Z,82.91
2019-03-30T00:15:09.130Z,83.1
2019-03-30T00:20:07.495Z,82.81
2019-03-30T00:25:06.473Z,82.46
2019-03-30T00:30:02.981Z,82.53
2019-03-30T00:35:04.958Z,81.45
2019-03-30T00:40:05.410Z,80.01
2019-03-30T00:45:02.925Z,80.62
2019-03-30T00:50:04.817Z,81.38
2019-03-30T00:55:06.785Z,81.64
2019-03-30T01:00:03.883Z,83.18
2019-03-30T01:05:07.228Z,83.99
2019-03-30T01:10:09.042Z,83.59
2019-03-30T01:15:03.997Z,82.76
2019-03-30T01:20:06.530Z,82.82
2019-03-30T01:25:07.687Z,82.52
2019-03-30T01:30:03.739Z,82.29
2019-03-30T01:35:07.474Z,82.23
2019-03-30T01:40:07.920Z,82.27
2019-03-30T01:45:03.089Z,82.58
2019-03-30T01:50:19.760Z,83.16
2019-03-30T01:55:08.634Z,83.65
2019-03-30T02:00:04.689Z,83.7
2019-03-30T02:05:05.856Z,84.18
2019-03-30T02:10:05.959Z,84.36
2019-03-30T02:15:07.880Z,84.86
2019-03-30T02:20:07.656Z,85
2019-03-30T02:25:07.378Z,84.37
2019-03-30T02:30:07.979Z,84.56
2019-03-30T02:35:09.228Z,84.83
2019-03-30T02:40:07.595Z,85.23
2019-03-30T02:45:04.317Z,85.72
2019-03-30T02:50:09.199Z,86.33
2019-03-30T02:55:12.077Z,86.72
2019-03-30T03:00:03.686Z,87.27
2019-03-30T03:05:08.111Z,87.3
2019-03-30T03:10:06.306Z,87.8
2019-03-30T03:15:04.995Z,88.88
2019-03-30T03:20:09.416Z,89.25
2019-03-30T03:25:11.699Z,89.68
2019-03-30T03:30:07.927Z,89.91
2019-03-30T03:35:11.626Z,90.67
2019-03-30T03:40:15.833Z,91.03
2019-03-30T03:45:05.312Z,91
2019-03-30T03:50:11.478Z,90.79
2019-03-30T03:55:12.409Z,90.82
2019-03-30T04:00:05.708Z,91.1
2019-03-30T04:05:13.528Z,91.45
2019-03-30T04:10:07.076Z,91.83
2019-03-30T04:15:07.558Z,92.16
2019-03-30T04:20:09.273Z,92.46
2019-03-30T04:25:08.938Z,92.85
2019-03-30T04:30:07.383Z,93.54
2019-03-30T04:35:07.186Z,93.83
2019-03-30T04:40:06.437Z,94.22
2019-03-30T04:45:02.940Z,94.58
2019-03-30T04:50:07.492Z,93.32
2019-03-30T04:55:07.208Z,91.84
2019-03-30T05:00:02.800Z,91.9
2019-03-30T05:05:07.037Z,91.65
2019-03-30T05:10:02.979Z,90.88
2019-03-30T05:15:04.148Z,89.2
2019-03-30T05:20:04.104Z,87.98
2019-03-30T05:25:07.758Z,86.72
2019-03-30T05:30:04.394Z,85.72
2019-03-30T05:35:07.242Z,85.28
2019-03-30T05:40:07.717Z,84.27
2019-03-30T05:45:04.462Z,83.76
2019-03-30T05:50:09.300Z,83.37
2019-03-30T05:55:10.257Z,82.61
2019-03-30T06:00:04.900Z,82.5
2019-03-30T06:05:10.316Z,81.69
2019-03-30T06:10:06.999Z,80.78
2019-03-30T06:15:09.221Z,80.06
2019-03-30T06:20:07.620Z,79.14
2019-03-30T06:25:07.048Z,77.86
2019-03-30T06:30:03.692Z,76.57
2019-03-30T06:35:06.713Z,76.13
2019-03-30T06:40:07.665Z,74.91
2019-03-30T06:45:04.110Z,74.27
2019-03-30T06:50:06.381Z,74.32
2019-03-30T06:55:07.648Z,73.63
2019-03-30T07:00:04.165Z,74.34
2019-03-30T07:05:06.962Z,72.85
2019-03-30T07:10:06.988Z,73.27
2019-03-30T07:15:04.036Z,72.69
2019-03-30T07:20:06.820Z,70.98
2019-03-30T07:25:10.542Z,71.78
2019-03-30T07:30:04.156Z,70.52
2019-03-30T07:35:09.206Z,71.05
2019-03-30T07:40:07.618Z,69.59
2019-03-30T07:45:04.132Z,68.3
2019-03-30T07:50:08.448Z,65.58
2019-03-30T07:55:07.879Z,66.52
2019-03-30T08:00:04.560Z,63.96
2019-03-30T08:05:07.918Z,64.8
2019-03-30T08:10:05.756Z,63.42
2019-03-30T08:15:04.448Z,61.49
2019-03-30T08:20:06.080Z,61.88
2019-03-30T08:25:07.312Z,61.95
2019-03-30T08:30:02.872Z,59.84
2019-03-30T08:35:06.523Z,57.65
2019-03-30T08:40:07.433Z,58.99
2019-03-30T08:45:03.006Z,58.99
2019-03-30T08:50:07.572Z,57.99
2019-03-30T08:55:07.217Z,59.01
2019-03-30T09:00:02.731Z,57.46
2019-03-30T09:05:07.408Z,54.28
2019-03-30T09:10:07.101Z,55.7
2019-03-30T09:15:02.719Z,57.43
2019-03-30T09:20:07.323Z,56.29
2019-03-30T09:25:07.562Z,55.57
2019-03-30T09:30:03.099Z,53.38
2019-03-30T09:35:06.533Z,52.41
2019-03-30T09:40:07.294Z,54.25
2019-03-30T09:45:02.900Z,52.28
2019-03-30T09:50:06.520Z,51.09
2019-03-30T09:55:07.216Z,51.25
2019-03-30T10:00:02.711Z,51.32
2019-03-30T10:05:06.580Z,49.93
2019-03-30T10:10:03.284Z,50.56
2019-03-30T10:15:02.877Z,50.82
2019-03-30T10:20:08.005Z,52.71
2019-03-30T10:25:06.978Z,50.21
2019-03-30T10:30:02.575Z,50.53
2019-03-30T10:35:05.764Z,52.65
2019-03-30T10:40:06.876Z,51.56
2019-03-30T10:45:03.392Z,50.33
2019-03-30T10:50:07.222Z,51.09
2019-03-30T10:55:08.826Z,49.07
2019-03-30T11:00:03.886Z,49.39
2019-03-30T11:05:06.141Z,48.56
2019-03-30T11:10:07.119Z,47.7
2019-03-30T11:15:04.938Z,48.24
2019-03-30T11:20:07.046Z,46.01
2019-03-30T11:25:09.269Z,47.11
2019-03-30T11:30:03.357Z,46.44
2019-03-30T11:35:05.736Z,45.66
2019-03-30T11:40:06.269Z,46.3
2019-03-30T11:45:03.493Z,45.85
2019-03-30T11:50:05.891Z,43.73
2019-03-30T11:55:20.500Z,43.88
2019-03-30T12:00:03.456Z,45.4
2019-03-30T12:05:07.280Z,45.28
2019-03-30T12:10:08.232Z,46
2019-03-30T12:15:03.876Z,45.31
2019-03-30T12:20:08.001Z,45.53
2019-03-30T12:25:07.508Z,44.31
2019-03-30T12:30:04.163Z,43.43
2019-03-30T12:35:06.945Z,45.53
2019-03-30T12:40:06.199Z,45.78
2019-03-30T12:45:04.065Z,46.07
2019-03-30T12:50:06.870Z,45.22
2019-03-30T12:55:06.805Z,46.2
2019-03-30T13:00:04.602Z,46.65
2019-03-30T13:07:11.089Z,46.52
2019-03-30T13:10:06.812Z,46.06
2019-03-30T13:15:04.404Z,44.84
2019-03-30T13:20:06.067Z,46.23
2019-03-30T13:25:07.240Z,45.15
2019-03-30T13:30:03.924Z,46.35
2019-03-30T13:35:06.572Z,45.65
2019-03-30T13:40:07.441Z,46.18
2019-03-30T13:45:09.786Z,47.49
2019-03-30T13:50:07.323Z,44.96
2019-03-30T13:55:07.099Z,45.87
2019-03-30T14:00:05.489Z,45.97
2019-03-30T14:05:09.657Z,46.58
2019-03-30T14:10:04.369Z,46.67
2019-03-30T14:15:04.330Z,45.62
2019-03-30T14:20:06.227Z,45.89
2019-03-30T14:25:05.511Z,45.78
2019-03-30T14:30:04.407Z,45.59
2019-03-30T14:35:06.999Z,46.61
2019-03-30T14:40:09.187Z,44
2019-03-30T14:45:02.878Z,46.28
2019-03-30T14:50:10.025Z,47.83
2019-03-30T14:55:07.224Z,47.39
2019-03-30T15:00:02.947Z,46.43
2019-03-30T15:05:07.280Z,48.22
2019-03-30T15:10:09.581Z,48.18
2019-03-30T15:15:03.786Z,48.58
2019-03-30T15:20:06.189Z,49.47
2019-03-30T15:25:06.356Z,48.69
2019-03-30T15:30:02.909Z,47.12
2019-03-30T15:35:06.365Z,49.2
2019-03-30T15:40:05.233Z,47.01
2019-03-30T15:45:02.861Z,48.45
2019-03-30T15:50:06.273Z,48.45
2019-03-30T15:55:05.284Z,47.46
2019-03-30T16:00:02.816Z,46.88
2019-03-30T16:05:06.297Z,47.38
2019-03-30T16:10:05.140Z,49.65
2019-03-30T16:15:02.853Z,48.82
2019-03-30T16:20:07.319Z,49.48
2019-03-30T16:25:08.035Z,50.19
2019-03-30T16:30:03.182Z,50.58
2019-03-30T16:35:06.110Z,51.73
2019-03-30T16:40:06.819Z,52.21
2019-03-30T16:45:03.870Z,52.76
2019-03-30T16:50:06.751Z,53.34
2019-03-30T16:55:07.386Z,53.63
2019-03-30T17:00:03.745Z,53.6
2019-03-30T17:05:05.735Z,53.68
2019-03-30T17:10:07.498Z,53.99
2019-03-30T17:15:04.242Z,54.99
2019-03-30T17:20:06.804Z,55.95
2019-03-30T17:25:07.923Z,56.01
2019-03-30T17:30:03.750Z,55.68
2019-03-30T17:35:07.183Z,56.82
2019-03-30T17:40:07.784Z,56.81
2019-03-30T17:45:04.424Z,56.47
2019-03-30T17:50:06.989Z,56.56
2019-03-30T17:55:09.266Z,57.13
2019-03-30T18:00:03.959Z,58.92
2019-03-30T18:05:09.102Z,59.59
2019-03-30T18:10:08.042Z,60.27
2019-03-30T18:15:03.750Z,60.48
2019-03-30T18:20:08.918Z,60.4
2019-03-30T18:25:07.758Z,61.01
2019-03-30T18:30:04.467Z,61.81
2019-03-30T18:35:08.971Z,62.65
2019-03-30T18:40:07.211Z,63.01
2019-03-30T18:45:03.868Z,62.88
2019-03-30T18:50:08.519Z,62.31
2019-03-30T18:55:07.055Z,63.1
2019-03-30T19:00:03.866Z,63.7
2019-03-30T19:05:08.171Z,64.33
2019-03-30T19:10:07.618Z,65.68
2019-03-30T19:15:04.266Z,66.22
2019-03-30T19:20:07.446Z,66.11
2019-03-30T19:25:08.107Z,67.83
2019-03-30T19:30:03.882Z,67.97
2019-03-30T19:35:07.993Z,67.47
2019-03-30T19:40:05.960Z,67.81
2019-03-30T19:45:03.669Z,69.13
2019-03-30T19:50:06.550Z,69.3
2019-03-30T19:55:07.323Z,69.72
2019-03-30T20:00:03.313Z,69.22
2019-03-30T20:05:06.313Z,68.21
2019-03-30T20:10:07.133Z,67.54
2019-03-30T20:15:03.296Z,67.37
2019-03-30T20:20:06.156Z,67.64
2019-03-30T20:25:07.204Z,67.72
2019-03-30T20:30:03.281Z,68.02
2019-03-30T20:35:06.361Z,68.9
2019-03-30T20:40:06.630Z,69.04
2019-03-30T20:45:04.106Z,69.02
2019-03-30T20:50:06.986Z,69.95
2019-03-30T20:55:07.309Z,69.95
2019-03-30T21:00:02.883Z,70.32
2019-03-30T21:05:08.240Z,70.79
2019-03-30T21:10:06.105Z,71.45
2019-03-30T21:15:02.866Z,71.5
2019-03-30T21:20:08.160Z,71.97
2019-03-30T21:25:07.200Z,71.94
2019-03-30T21:30:02.796Z,70.95
2019-03-30T21:35:07.934Z,70.6
2019-03-30T21:40:05.624Z,70.87
2019-03-30T21:45:03.162Z,71.15
2019-03-30T21:50:05.735Z,70.95
2019-03-30T21:55:05.593Z,71.56
2019-03-30T22:00:11.653Z,71.85
2019-03-30T22:05:05.714Z,71.64
2019-03-30T22:10:06.297Z,71.37
2019-03-30T22:15:02.869Z,71.55
2019-03-30T22:20:06.575Z,71.53
2019-03-30T22:25:05.642Z,71.45
2019-03-30T22:30:04.159Z,71.12
2019-03-30T22:35:07.918Z,71.75
2019-03-30T22:40:05.457Z,71.38
2019-03-30T22:45:03.604Z,71.86
2019-03-30T22:50:07.758Z,71.81
2019-03-30T22:55:07.240Z,72.08
2019-03-30T23:00:03.543Z,72.6
2019-03-30T23:05:07.770Z,73.08
2019-03-30T23:10:06.802Z,73.46
2019-03-30T23:15:03.843Z,73.55
2019-03-30T23:20:05.877Z,74
2019-03-30T23:25:06.515Z,74.59
2019-03-30T23:30:03.567Z,75.31
2019-03-30T23:35:05.355Z,76.83
2019-03-30T23:40:05.698Z,77.43
2019-03-30T23:45:03.781Z,76.92
2019-03-30T23:50:06.453Z,76.9
2019-03-30T23:55:07.653Z,77.01
